Terminal Aerodrome Forecast
Issued by NWS

Home | Current Version | Previous Version | Graphics & Text | Print | Product List | Glossary On
Versions: 1 2 3 4 5 6 7 8 9 10 11 12 13
000
FTUS43 KBIS 012327
TAFMOT
TAF
KMOT 012327Z 0200/0224 23014G22KT P6SM SCT200
     FM020200 21007KT P6SM SCT120
     FM021600 24016G25KT P6SM SCT120=

USA.gov is the U.S. government's official web portal to all federal, state and local government web resources and services.